Time;durP1;ratioP1;P1;durP2;ratioP2;P2;SDS_P1;SDS_P2;PMS_P1;PMS_P2;Temp;Humidity;BMP_temperature;BMP_pressure;BME280_temperature;BME280_humidity;BME280_pressure;Samples;Min_cycle;Max_cycle;Signal;HPM_P1;HPM_P2
2022/08/30 00:03:18;;;;;;;15.33;12.13;;;15.50;99.90;;;;;;5102014;28;20179;-84
2022/08/30 00:05:44;;;;;;;13.13;11.27;;;15.50;99.90;;;;;;5099659;28;20534;-83
2022/08/30 00:08:11;;;;;;;13.90;11.37;;;15.50;99.90;;;;;;5100710;28;20651;-83
2022/08/30 00:10:38;;;;;;;14.47;12.07;;;15.50;99.90;;;;;;5100807;28;20194;-84
2022/08/30 00:13:05;;;;;;;14.70;11.97;;;15.50;99.90;;;;;;5099024;28;20183;-84
2022/08/30 00:15:31;;;;;;;13.67;11.70;;;15.40;99.90;;;;;;5100489;28;20200;-85
2022/08/30 00:17:57;;;;;;;14.70;11.70;;;15.40;99.90;;;;;;5100523;28;20659;-83
2022/08/30 00:20:26;;;;;;;16.23;12.90;;;15.40;99.90;;;;;;5101038;28;20199;-84
2022/08/30 00:22:52;;;;;;;14.90;11.63;;;15.40;99.90;;;;;;5098541;28;20180;-84
2022/08/30 00:25:19;;;;;;;16.53;12.37;;;15.40;99.90;;;;;;5100634;28;20172;-83
2022/08/30 00:27:45;;;;;;;15.97;12.20;;;15.40;99.90;;;;;;5099781;28;20565;-81
2022/08/30 00:30:12;;;;;;;14.63;11.43;;;15.40;99.90;;;;;;5100645;28;20192;-84
2022/08/30 00:32:39;;;;;;;12.67;11.37;;;15.30;99.90;;;;;;5099150;28;20184;-84
2022/08/30 00:35:07;;;;;;;14.63;12.33;;;15.30;99.90;;;;;;5099268;28;20183;-83
2022/08/30 00:37:32;;;;;;;15.53;13.33;;;15.30;99.90;;;;;;5098035;28;20180;-83
2022/08/30 00:39:58;;;;;;;14.93;12.17;;;15.30;99.90;;;;;;5100257;28;20200;-84
2022/08/30 00:42:24;;;;;;;15.33;12.40;;;15.30;99.90;;;;;;5099771;28;20255;-83
2022/08/30 00:44:50;;;;;;;18.70;12.43;;;15.20;99.90;;;;;;5096502;28;20198;-83
2022/08/30 00:47:16;;;;;;;16.20;12.70;;;15.20;99.90;;;;;;5098027;28;20218;-84
2022/08/30 00:49:46;;;;;;;15.77;12.37;;;15.20;99.90;;;;;;5098108;28;20206;-84
2022/08/30 00:52:12;;;;;;;16.87;13.30;;;15.20;99.90;;;;;;5098908;28;20168;-83
2022/08/30 00:54:43;;;;;;;20.37;13.53;;;15.20;99.90;;;;;;5099295;28;20207;-82
2022/08/30 00:57:11;;;;;;;13.73;11.73;;;15.10;99.90;;;;;;5097528;28;20263;-83
2022/08/30 00:59:37;;;;;;;16.50;12.20;;;15.10;99.90;;;;;;5097930;28;20220;-81
2022/08/30 01:02:03;;;;;;;15.63;13.07;;;15.20;99.90;;;;;;5097516;28;20177;-83
2022/08/30 01:04:31;;;;;;;16.93;13.07;;;15.20;99.90;;;;;;5096032;28;20185;-80
2022/08/30 01:06:58;;;;;;;16.47;13.33;;;15.10;99.90;;;;;;5095309;28;20525;-80
2022/08/30 01:09:23;;;;;;;15.60;12.87;;;15.10;99.90;;;;;;5095070;28;20206;-83
2022/08/30 01:11:49;;;;;;;15.87;12.53;;;15.10;99.90;;;;;;5095336;28;20633;-82
2022/08/30 01:14:16;;;;;;;17.53;12.67;;;15.10;99.90;;;;;;5095151;28;20641;-83
2022/08/30 01:16:43;;;;;;;15.63;12.83;;;15.10;99.90;;;;;;5094971;28;20176;-82
2022/08/30 01:19:51;;;;;;;15.87;12.40;;;15.00;99.90;;;;;;5095957;28;20680;-83
2022/08/30 01:22:49;;;;;;;15.23;13.47;;;15.00;99.90;;;;;;5073966;28;20244;-82
2022/08/30 01:25:24;;;;;;;14.47;12.73;;;15.00;99.90;;;;;;5074209;28;20188;-85
2022/08/30 01:27:54;;;;;;;15.93;12.80;;;14.90;99.90;;;;;;5098740;28;20202;-83
2022/08/30 01:30:22;;;;;;;15.47;12.83;;;14.90;99.90;;;;;;5096800;28;20204;-83
2022/08/30 01:32:50;;;;;;;14.57;13.03;;;14.90;99.90;;;;;;5094877;28;20194;-84
2022/08/30 01:35:19;;;;;;;17.70;13.13;;;15.00;99.90;;;;;;5095852;28;20265;-85
2022/08/30 01:37:45;;;;;;;16.47;13.10;;;14.90;99.90;;;;;;5097749;28;20196;-84
2022/08/30 01:40:13;;;;;;;15.00;13.07;;;14.90;99.90;;;;;;5099269;28;20568;-86
2022/08/30 01:42:39;;;;;;;16.23;13.23;;;14.90;99.90;;;;;;5097875;28;20173;-84
2022/08/30 01:45:07;;;;;;;16.40;13.03;;;14.90;99.90;;;;;;5098265;28;20172;-85
2022/08/30 01:47:33;;;;;;;17.90;12.73;;;14.80;99.90;;;;;;5097646;28;20179;-84
2022/08/30 01:49:59;;;;;;;17.03;14.33;;;14.80;99.90;;;;;;5098643;28;20217;-84
2022/08/30 01:52:25;;;;;;;16.23;13.33;;;14.80;99.90;;;;;;5100659;28;20691;-84
2022/08/30 01:54:52;;;;;;;18.03;12.87;;;14.70;99.90;;;;;;5100630;28;20264;-83
2022/08/30 01:57:20;;;;;;;16.37;12.93;;;14.70;99.90;;;;;;5098764;28;20173;-85
2022/08/30 01:59:48;;;;;;;16.80;13.33;;;14.70;99.90;;;;;;5102032;28;20215;-84
2022/08/30 02:02:18;;;;;;;15.60;12.00;;;14.70;99.90;;;;;;5104179;28;20514;-84
2022/08/30 02:04:44;;;;;;;15.30;12.70;;;14.70;99.90;;;;;;5096391;28;20188;-84
2022/08/30 02:07:10;;;;;;;19.37;12.87;;;14.70;99.90;;;;;;5095197;28;20176;-85
2022/08/30 02:09:36;;;;;;;17.13;12.93;;;14.70;99.90;;;;;;5095024;28;20692;-84
2022/08/30 02:12:06;;;;;;;15.70;12.63;;;14.70;99.90;;;;;;5095243;28;20181;-84
2022/08/30 02:14:33;;;;;;;15.53;13.17;;;14.70;99.90;;;;;;5094750;28;20545;-83
2022/08/30 02:16:58;;;;;;;16.87;13.17;;;14.60;99.90;;;;;;5095156;28;20206;-84
2022/08/30 02:19:24;;;;;;;16.93;13.67;;;14.60;99.90;;;;;;5095256;28;20579;-84
2022/08/30 02:21:50;;;;;;;17.30;12.70;;;14.60;99.90;;;;;;5095062;28;20174;-84
2022/08/30 02:24:16;;;;;;;18.60;13.10;;;14.50;99.90;;;;;;5095093;28;20172;-84
2022/08/30 02:26:42;;;;;;;17.03;13.00;;;14.60;99.90;;;;;;5095035;28;20654;-84
2022/08/30 02:29:08;;;;;;;16.47;13.10;;;14.50;99.90;;;;;;5094754;28;20235;-83
2022/08/30 02:31:34;;;;;;;15.30;11.77;;;14.50;99.90;;;;;;5096768;28;20184;-85
2022/08/30 02:34:00;;;;;;;15.40;12.93;;;14.50;99.90;;;;;;5094755;28;20637;-85
2022/08/30 02:36:26;;;;;;;13.93;11.80;;;14.50;99.90;;;;;;5095059;28;20184;-85
2022/08/30 02:38:52;;;;;;;14.07;12.07;;;14.40;99.90;;;;;;5095085;28;20681;-83
2022/08/30 02:41:19;;;;;;;16.77;11.77;;;14.40;99.90;;;;;;5097039;28;20196;-86
2022/08/30 02:43:45;;;;;;;15.67;12.47;;;14.40;99.90;;;;;;5095045;28;20225;-83
2022/08/30 02:46:11;;;;;;;16.17;12.33;;;14.40;99.90;;;;;;5099982;28;20175;-86
2022/08/30 02:48:37;;;;;;;15.87;13.00;;;14.40;99.90;;;;;;5100159;28;20184;-84
2022/08/30 02:51:09;;;;;;;13.87;12.33;;;14.30;99.90;;;;;;5100998;28;20200;-84
2022/08/30 02:53:35;;;;;;;14.13;12.10;;;14.30;99.90;;;;;;5099960;28;20178;-84
2022/08/30 02:56:01;;;;;;;14.63;12.30;;;14.30;99.90;;;;;;5099720;28;20183;-83
2022/08/30 02:58:27;;;;;;;14.03;12.53;;;14.30;99.90;;;;;;5100487;28;20279;-83
2022/08/30 03:00:53;;;;;;;16.43;12.33;;;14.20;99.90;;;;;;5099070;28;20637;-83
2022/08/30 03:03:19;;;;;;;15.10;12.03;;;14.20;99.90;;;;;;5099189;28;20176;-84
2022/08/30 03:05:44;;;;;;;14.97;11.50;;;14.20;99.90;;;;;;5098774;28;20176;-84
2022/08/30 03:08:10;;;;;;;13.83;12.27;;;14.20;99.90;;;;;;5100936;28;20652;-83
2022/08/30 03:10:37;;;;;;;15.53;11.93;;;14.10;99.90;;;;;;5101590;28;20705;-82
2022/08/30 03:13:04;;;;;;;17.07;12.60;;;14.10;99.90;;;;;;5099854;28;20219;-83
2022/08/30 03:15:30;;;;;;;14.30;12.17;;;14.10;99.90;;;;;;5100174;28;20180;-82
2022/08/30 03:17:56;;;;;;;16.47;12.53;;;14.00;99.90;;;;;;5101125;28;20214;-82
2022/08/30 03:20:22;;;;;;;15.73;13.10;;;14.00;99.90;;;;;;5100801;28;20229;-83
2022/08/30 03:22:49;;;;;;;16.27;13.07;;;14.00;99.90;;;;;;5101623;28;20172;-81
2022/08/30 03:25:15;;;;;;;15.20;12.00;;;14.00;99.90;;;;;;5101286;28;20176;-81
2022/08/30 03:27:40;;;;;;;14.57;11.77;;;14.00;99.90;;;;;;5102676;28;20192;-84
2022/08/30 03:30:07;;;;;;;18.47;11.57;;;13.90;99.90;;;;;;5101924;28;20193;-85
2022/08/30 03:32:33;;;;;;;15.20;11.90;;;13.90;99.90;;;;;;5100865;28;20187;-85
2022/08/30 03:34:59;;;;;;;13.97;11.90;;;13.90;99.90;;;;;;5101473;28;20176;-85
2022/08/30 03:37:26;;;;;;;16.33;12.73;;;13.90;99.90;;;;;;5101386;28;20695;-84
2022/08/30 03:39:53;;;;;;;14.87;11.43;;;13.90;99.90;;;;;;5108460;28;20196;-83
2022/08/30 03:42:19;;;;;;;14.27;11.87;;;13.90;99.90;;;;;;5099976;28;20165;-84
2022/08/30 03:44:45;;;;;;;14.27;12.43;;;13.90;99.90;;;;;;5099524;28;20172;-85
2022/08/30 03:47:11;;;;;;;15.67;11.57;;;13.80;99.90;;;;;;5098774;28;20538;-84
2022/08/30 03:49:37;;;;;;;14.23;12.17;;;13.90;99.90;;;;;;5099884;28;20203;-85
2022/08/30 03:52:03;;;;;;;14.37;11.40;;;13.80;99.90;;;;;;5099553;28;20251;-85
2022/08/30 03:54:29;;;;;;;15.47;12.03;;;13.80;99.90;;;;;;5096994;28;20234;-86
2022/08/30 03:56:55;;;;;;;14.47;11.20;;;13.90;99.90;;;;;;5096047;28;20176;-83
2022/08/30 03:59:21;;;;;;;12.83;11.30;;;13.90;99.90;;;;;;5096560;28;20226;-83
2022/08/30 04:01:46;;;;;;;13.23;11.07;;;13.90;99.90;;;;;;5099206;28;20251;-83
2022/08/30 04:04:13;;;;;;;13.57;10.87;;;13.90;99.90;;;;;;5098816;28;20195;-82
2022/08/30 04:06:39;;;;;;;13.63;10.60;;;13.90;99.90;;;;;;5097237;28;20172;-83
2022/08/30 04:09:05;;;;;;;11.90;10.60;;;13.80;99.90;;;;;;5097249;28;20222;-82
2022/08/30 04:11:32;;;;;;;16.20;10.50;;;13.80;99.90;;;;;;5098495;28;20249;-83
2022/08/30 04:13:58;;;;;;;14.60;11.00;;;13.80;99.90;;;;;;5097241;28;20172;-85
2022/08/30 04:16:25;;;;;;;15.73;10.60;;;13.90;99.90;;;;;;5098795;28;20187;-85
2022/08/30 04:18:51;;;;;;;13.10;11.23;;;;;;;;;;5098627;28;20192;-83
2022/08/30 04:21:17;;;;;;;13.03;10.70;;;13.90;99.90;;;;;;5097312;28;20172;-86
2022/08/30 04:23:43;;;;;;;11.30;10.10;;;13.90;99.90;;;;;;5098671;28;20183;-85
2022/08/30 04:26:10;;;;;;;12.10;10.60;;;13.90;99.90;;;;;;5098834;28;20594;-82
2022/08/30 04:28:35;;;;;;;11.67;9.73;;;13.90;99.90;;;;;;5097327;28;20653;-83
2022/08/30 04:31:09;;;;;;;13.20;11.27;;;13.90;99.90;;;;;;5099209;28;20199;-83
2022/08/30 04:33:35;;;;;;;12.43;11.13;;;13.90;99.90;;;;;;5098830;28;20234;-84
2022/08/30 04:36:03;;;;;;;13.10;10.67;;;13.90;99.90;;;;;;5100535;28;20203;-83
2022/08/30 04:38:30;;;;;;;12.13;10.03;;;13.90;99.90;;;;;;5098282;28;20196;-84
2022/08/30 04:40:56;;;;;;;13.63;10.27;;;13.90;99.90;;;;;;5097888;28;20221;-85
2022/08/30 04:43:25;;;;;;;13.00;10.10;;;13.90;99.90;;;;;;5098183;28;20642;-83
2022/08/30 04:45:51;;;;;;;12.63;9.97;;;13.90;99.90;;;;;;5099238;28;20192;-84
2022/08/30 04:48:17;;;;;;;13.23;10.87;;;13.80;99.90;;;;;;5097648;28;20215;-83
2022/08/30 04:50:43;;;;;;;14.10;10.90;;;13.80;99.90;;;;;;5096937;28;20200;-83
2022/08/30 04:53:08;;;;;;;14.63;10.97;;;13.80;99.90;;;;;;5097536;28;20176;-84
2022/08/30 04:55:34;;;;;;;12.43;10.57;;;;;;;;;;5097727;28;20182;-84
2022/08/30 04:58:00;;;;;;;14.27;10.30;;;13.80;99.90;;;;;;5098734;28;20658;-85
2022/08/30 05:00:27;;;;;;;12.90;10.23;;;;;;;;;;5097891;28;20192;-84
2022/08/30 05:02:52;;;;;;;13.53;10.00;;;13.80;99.90;;;;;;5098307;28;20180;-83
2022/08/30 05:08:03;;;;;;;14.93;11.77;;;13.80;99.90;;;;;;5098578;28;20166;-83
2022/08/30 05:10:28;;;;;;;12.47;9.80;;;13.80;99.90;;;;;;5099097;28;20195;-85
2022/08/30 05:12:54;;;;;;;11.53;9.63;;;13.80;99.90;;;;;;5098567;28;20181;-84
2022/08/30 05:15:21;;;;;;;10.37;9.23;;;13.80;99.90;;;;;;5098850;28;20180;-86
2022/08/30 05:17:47;;;;;;;9.73;8.73;;;13.80;99.90;;;;;;5098479;28;20656;-86
2022/08/30 05:20:13;;;;;;;11.67;9.00;;;13.90;99.90;;;;;;5107008;28;20223;-83
2022/08/30 05:22:48;;;;;;;11.33;9.13;;;13.90;99.90;;;;;;5096312;28;20172;-85
2022/08/30 05:25:16;;;;;;;9.73;8.40;;;14.00;99.90;;;;;;5096233;28;20190;-83
2022/08/30 05:27:41;;;;;;;10.97;8.87;;;14.00;99.90;;;;;;5099851;28;20183;-82
2022/08/30 05:30:08;;;;;;;12.73;8.90;;;14.10;99.90;;;;;;5098703;28;20211;-81
2022/08/30 05:32:34;;;;;;;10.57;9.10;;;14.10;99.90;;;;;;5098124;28;20164;-81
2022/08/30 05:34:59;;;;;;;9.33;8.03;;;14.10;99.90;;;;;;5096363;28;20168;-81
2022/08/30 05:37:25;;;;;;;10.57;7.80;;;;;;;;;;5097005;28;20165;-82
2022/08/30 05:39:51;;;;;;;8.60;7.73;;;14.30;99.90;;;;;;5097135;28;20847;-81
2022/08/30 05:42:17;;;;;;;9.63;7.83;;;14.20;99.90;;;;;;5094766;28;20169;-83
2022/08/30 05:59:07;;;;;;;13.30;7.37;;;14.50;99.90;;;;;;5139042;27;20315;-83
2022/08/30 06:01:45;;;;;;;8.53;7.63;;;14.60;99.90;;;;;;5114697;28;20233;-82
2022/08/30 06:04:12;;;;;;;9.57;8.10;;;14.70;99.90;;;;;;5116006;28;20159;-83
2022/08/30 06:06:40;;;;;;;10.30;7.60;;;14.80;99.90;;;;;;5115891;28;20171;-84
2022/08/30 06:09:08;;;;;;;8.77;7.23;;;14.80;99.90;;;;;;5113392;28;20176;-82
2022/08/30 06:11:34;;;;;;;12.67;7.27;;;14.90;99.90;;;;;;5094759;28;20689;-85
2022/08/30 06:14:02;;;;;;;12.40;7.40;;;15.00;99.90;;;;;;5110952;28;20541;-83
2022/08/30 06:16:28;;;;;;;10.40;8.00;;;15.00;99.90;;;;;;5102749;28;20189;-84
2022/08/30 06:28:06;;;;;;;8.77;6.20;;;15.40;99.90;;;;;;5136587;27;20628;-84
2022/08/30 06:30:33;;;;;;;12.70;6.20;;;15.50;99.90;;;;;;5137048;28;20271;-84
2022/08/30 06:32:59;;;;;;;9.00;6.17;;;15.70;99.90;;;;;;5122382;28;20187;-85
2022/08/30 06:35:27;;;;;;;8.80;6.80;;;15.70;99.90;;;;;;5114435;28;20180;-84
2022/08/30 06:37:53;;;;;;;7.80;6.07;;;15.80;99.90;;;;;;5114980;28;20176;-83
2022/08/30 06:40:20;;;;;;;7.67;5.73;;;15.90;99.90;;;;;;5113864;28;20680;-84
2022/08/30 06:42:46;;;;;;;8.37;5.83;;;15.90;99.90;;;;;;5114063;28;20214;-84
2022/08/30 06:45:14;;;;;;;6.57;5.83;;;16.00;99.90;;;;;;5114290;28;20182;-84
2022/08/30 06:47:40;;;;;;;6.43;5.57;;;16.20;99.90;;;;;;5114095;28;20567;-84
2022/08/30 06:50:06;;;;;;;6.30;5.70;;;16.30;99.90;;;;;;5116089;28;20196;-83
2022/08/30 06:52:32;;;;;;;8.23;5.30;;;16.40;99.90;;;;;;5115018;28;20178;-83
2022/08/30 06:54:58;;;;;;;8.37;5.63;;;16.50;99.90;;;;;;5115684;28;20202;-84
2022/08/30 06:57:25;;;;;;;6.30;5.70;;;16.60;99.90;;;;;;5114878;28;20207;-84
2022/08/30 07:05:12;;;;;;;8.83;5.70;;;16.80;99.90;;;;;;5075444;28;20517;-85
2022/08/30 07:07:38;;;;;;;7.03;5.63;;;17.00;99.90;;;;;;5071604;28;20176;-83
2022/08/30 07:10:06;;;;;;;6.70;5.07;;;17.10;99.90;;;;;;5072988;28;20239;-82
2022/08/30 07:12:32;;;;;;;5.77;4.53;;;17.20;99.90;;;;;;5071350;28;20184;-83
2022/08/30 07:14:58;;;;;;;5.20;4.70;;;17.30;99.90;;;;;;5071498;28;20181;-82
2022/08/30 07:20:20;;;;;;;4.70;4.30;;;17.50;99.90;;;;;;5088924;28;20200;-84
2022/08/30 07:22:46;;;;;;;8.17;5.40;;;17.60;99.90;;;;;;5072210;28;20169;-82
2022/08/30 07:25:13;;;;;;;5.33;4.83;;;17.70;99.90;;;;;;5073441;28;20575;-84
2022/08/30 07:27:38;;;;;;;7.70;4.77;;;17.80;99.90;;;;;;5071989;28;20183;-83
2022/08/30 07:30:07;;;;;;;5.17;4.67;;;17.90;99.90;;;;;;5074424;28;20221;-83
2022/08/30 07:32:33;;;;;;;5.20;4.70;;;18.00;99.90;;;;;;5074390;28;20177;-83
2022/08/30 07:34:59;;;;;;;5.67;5.07;;;18.20;99.90;;;;;;5073085;28;20181;-81
2022/08/30 07:37:25;;;;;;;5.87;4.83;;;18.40;99.90;;;;;;5073013;28;20180;-81
2022/08/30 07:39:51;;;;;;;5.60;5.07;;;18.50;99.90;;;;;;5071150;28;20205;-82
2022/08/30 07:42:17;;;;;;;6.97;5.70;;;18.70;99.90;;;;;;5073614;28;20174;-83
2022/08/30 07:44:42;;;;;;;5.47;4.93;;;18.80;99.90;;;;;;5071631;28;20221;-81
2022/08/30 07:47:08;;;;;;;7.87;5.03;;;19.00;99.90;;;;;;5072362;28;20178;-83
2022/08/30 07:49:36;;;;;;;5.90;4.60;;;19.20;99.90;;;;;;5070494;28;20200;-82
2022/08/30 07:52:02;;;;;;;5.33;4.83;;;19.40;99.90;;;;;;5071252;28;20190;-83
2022/08/30 07:54:28;;;;;;;6.00;5.03;;;19.60;99.90;;;;;;5072864;28;20186;-83
2022/08/30 07:56:54;;;;;;;6.10;4.60;;;19.80;99.90;;;;;;5072515;28;20187;-83
2022/08/30 07:59:21;;;;;;;6.07;5.03;;;19.90;99.90;;;;;;5072026;28;20198;-82
2022/08/30 08:01:47;;;;;;;6.47;5.33;;;20.10;99.90;;;;;;5072003;28;20640;-83
2022/08/30 08:04:12;;;;;;;8.37;5.40;;;20.50;99.90;;;;;;5071366;28;20262;-83
2022/08/30 08:06:39;;;;;;;5.57;5.00;;;20.90;99.90;;;;;;5070469;28;20258;-83
2022/08/30 08:09:06;;;;;;;5.20;4.70;;;21.30;99.90;;;;;;5071040;28;20180;-83
2022/08/30 08:11:33;;;;;;;5.70;5.10;;;21.70;99.90;;;;;;5070410;28;20207;-82
2022/08/30 08:13:59;;;;;;;5.47;4.90;;;21.90;99.90;;;;;;5070173;28;20549;-82
2022/08/30 08:16:27;;;;;;;5.80;5.17;;;22.20;99.90;;;;;;5059109;28;20173;-82
2022/08/30 08:18:54;;;;;;;7.63;5.77;;;22.50;99.90;;;;;;5057199;28;20221;-82
2022/08/30 08:21:21;;;;;;;7.53;5.60;;;22.80;99.90;;;;;;5057419;28;20213;-84
2022/08/30 08:23:46;;;;;;;6.47;4.93;;;23.10;99.90;;;;;;5058551;28;20197;-82
2022/08/30 08:26:12;;;;;;;6.93;4.70;;;23.30;99.90;;;;;;5058701;28;20196;-80
2022/08/30 08:28:38;;;;;;;6.20;4.67;;;23.50;99.90;;;;;;5058756;28;20173;-84
2022/08/30 08:31:13;;;;;;;6.57;4.10;;;23.70;99.90;;;;;;5057518;28;20202;-83
2022/08/30 08:33:39;;;;;;;5.67;4.00;;;23.90;99.90;;;;;;5057710;28;20708;-82
2022/08/30 08:36:05;;;;;;;4.53;3.90;;;24.00;99.90;;;;;;5058252;28;20178;-84
2022/08/30 08:38:31;;;;;;;3.57;3.27;;;24.10;99.90;;;;;;5057186;28;20239;-83
2022/08/30 08:41:09;;;;;;;5.50;3.77;;;24.20;99.90;;;;;;5058753;28;20225;-82
2022/08/30 08:43:36;;;;;;;3.73;3.17;;;24.40;99.90;;;;;;5058776;28;20203;-84
2022/08/30 08:46:25;;;;;;;6.40;3.20;;;24.50;99.90;;;;;;5059077;28;20326;-83
2022/08/30 08:48:55;;;;;;;3.40;3.10;;;24.70;99.90;;;;;;5057574;28;20171;-85
2022/08/30 08:54:32;;;;;;;4.87;3.30;;;25.20;99.90;;;;;;5059498;28;20183;-82
2022/08/30 08:56:59;;;;;;;4.03;3.03;;;25.30;99.90;;;;;;5059381;28;20169;-82
2022/08/30 08:59:25;;;;;;;4.73;3.50;;;25.50;99.90;;;;;;5059383;28;20283;-83
2022/08/30 09:01:51;;;;;;;3.83;3.20;;;25.60;99.90;;;;;;5057269;28;20204;-82
2022/08/30 09:04:23;;;;;;;3.33;3.03;;;25.70;99.90;;;;;;5057098;28;20628;-84
2022/08/30 09:06:59;;;;;;;4.33;3.00;;;26.00;99.90;;;;;;5058421;28;20611;-84
2022/08/30 09:09:36;;;;;;;4.70;3.13;;;26.20;99.90;;;;;;5057504;28;20563;-84
2022/08/30 09:12:04;;;;;;;4.97;3.20;;;26.40;99.90;;;;;;5058332;28;20173;-82
2022/08/30 09:14:46;;;;;;;4.43;2.90;;;26.50;99.90;;;;;;5057497;28;20212;-83
2022/08/30 09:17:14;;;;;;;5.30;3.23;;;26.60;99.90;;;;;;5058957;28;20210;-81
2022/08/30 09:19:51;;;;;;;4.67;3.40;;;26.70;99.90;;;;;;5058504;28;20387;-82
2022/08/30 09:22:20;;;;;;;3.27;2.97;;;26.60;99.90;;;;;;5059073;28;20162;-82
2022/08/30 09:24:53;;;;;;;4.07;3.30;;;26.70;99.90;;;;;;5057635;28;20266;-82
2022/08/30 09:27:24;;;;;;;3.53;3.20;;;26.80;99.90;;;;;;5050655;28;20638;-83
2022/08/30 09:29:53;;;;;;;5.67;3.60;;;27.10;99.90;;;;;;5057429;28;20573;-80
2022/08/30 09:32:39;;;;;;;5.17;3.40;;;27.10;99.90;;;;;;5058275;28;20181;-80
2022/08/30 09:35:09;;;;;;;5.70;3.33;;;27.20;99.90;;;;;;5056306;28;20295;-80
2022/08/30 09:37:39;;;;;;;4.37;3.40;;;27.40;99.90;;;;;;5055279;28;20202;-82
2022/08/30 09:40:25;;;;;;;4.13;3.13;;;27.60;99.90;;;;;;5055896;28;20557;-81
2022/08/30 09:43:18;;;;;;;3.57;3.27;;;27.70;99.90;;;;;;5042231;28;20178;-81
2022/08/30 09:45:59;;;;;;;5.87;3.60;;;27.70;99.90;;;;;;5037506;28;20604;-81
2022/08/30 09:48:38;;;;;;;5.77;3.40;;;27.80;99.90;;;;;;5037492;28;20176;-83
2022/08/30 09:51:09;;;;;;;3.93;2.97;;;27.80;99.90;;;;;;5036487;28;20675;-82
2022/08/30 09:54:17;;;;;;;3.33;2.97;;;27.80;99.90;;;;;;5035769;28;20212;-83
2022/08/30 09:56:46;;;;;;;3.83;3.00;;;28.10;99.90;;;;;;5021416;28;20187;-81
2022/08/30 09:59:21;;;;;;;3.70;2.90;;;28.20;99.90;;;;;;5036283;28;20188;-85
2022/08/30 10:02:26;;;;;;;3.67;3.10;;;28.20;99.90;;;;;;5044173;28;20200;-84
2022/08/30 10:05:02;;;;;;;4.07;2.83;;;28.30;99.90;;;;;;5035471;28;20575;-82
2022/08/30 10:07:35;;;;;;;4.03;3.37;;;28.30;99.90;;;;;;5036025;28;20197;-82
2022/08/30 10:10:16;;;;;;;3.17;2.87;;;28.30;99.90;;;;;;5037412;28;20684;-81
2022/08/30 10:13:18;;;;;;;4.10;2.67;;;28.40;99.90;;;;;;5053591;28;20188;-81
2022/08/30 10:16:18;;;;;;;5.50;3.23;;;28.50;99.90;;;;;;5038221;28;20657;-81
2022/08/30 10:18:56;;;;;;;3.77;2.97;;;28.70;99.90;;;;;;5051507;28;20246;-81
2022/08/30 10:21:49;;;;;;;3.43;3.13;;;28.70;99.90;;;;;;5054165;28;20182;-83
2022/08/30 10:24:23;;;;;;;4.17;3.07;;;28.90;99.90;;;;;;5037884;28;20202;-83
2022/08/30 10:27:01;;;;;;;4.97;3.23;;;29.00;99.90;;;;;;5043994;28;20202;-81
2022/08/30 10:29:48;;;;;;;3.17;2.87;;;29.30;99.90;;;;;;5046484;28;20206;-81
2022/08/30 10:32:22;;;;;;;3.13;2.93;;;29.20;99.90;;;;;;5036206;28;20214;-83
2022/08/30 10:34:56;;;;;;;3.30;3.00;;;29.20;99.90;;;;;;5053432;28;20214;-77
2022/08/30 10:37:33;;;;;;;3.07;2.87;;;29.30;99.90;;;;;;5037893;28;20179;-81
2022/08/30 10:43:06;;;;;;;2.93;2.70;;;29.40;98.90;;;;;;5042638;28;20232;-82
2022/08/30 10:45:39;;;;;;;3.97;2.93;;;29.50;99.90;;;;;;5048725;28;20182;-82
2022/08/30 10:48:23;;;;;;;2.90;2.70;;;29.60;99.90;;;;;;5054115;28;20208;-81
2022/08/30 10:50:53;;;;;;;4.17;3.40;;;29.90;99.90;;;;;;5050942;28;20190;-82
2022/08/30 10:53:35;;;;;;;4.97;3.23;;;30.00;99.90;;;;;;5046059;28;20211;-83
2022/08/30 10:56:07;;;;;;;3.60;3.30;;;30.10;99.90;;;;;;5036937;28;20164;-79
2022/08/30 10:58:36;;;;;;;3.33;3.03;;;30.60;99.90;;;;;;5038428;28;20683;-80
2022/08/30 11:01:01;;;;;;;3.50;3.00;;;30.60;99.60;;;;;;5053043;28;20214;-80
2022/08/30 11:03:47;;;;;;;3.30;2.97;;;30.60;99.90;;;;;;5037174;28;20199;-80
2022/08/30 11:06:18;;;;;;;3.23;2.83;;;30.60;99.80;;;;;;5040353;28;20193;-80
2022/08/30 11:08:44;;;;;;;3.43;3.10;;;;;;;;;;5053262;28;20237;-80
2022/08/30 11:11:31;;;;;;;3.30;2.93;;;30.50;99.10;;;;;;5051991;28;20609;-80
2022/08/30 11:14:01;;;;;;;3.20;2.90;;;30.30;95.40;;;;;;5035618;28;20205;-80
2022/08/30 11:16:40;;;;;;;4.33;3.00;;;30.30;99.20;;;;;;5035265;28;20189;-86
2022/08/30 11:19:26;;;;;;;6.27;2.97;;;30.70;99.30;;;;;;5035628;28;20179;-82
2022/08/30 11:22:10;;;;;;;3.57;3.10;;;30.70;98.60;;;;;;5044971;28;20270;-82
2022/08/30 11:25:11;;;;;;;3.10;2.90;;;30.80;98.50;;;;;;5055838;28;20189;-83
2022/08/30 11:27:52;;;;;;;2.90;2.70;;;30.90;96.00;;;;;;5053372;28;20234;-83
2022/08/30 11:30:23;;;;;;;4.40;2.70;;;31.00;97.40;;;;;;5041334;28;20753;-81
2022/08/30 11:33:04;;;;;;;3.23;2.93;;;31.10;96.60;;;;;;5036502;28;20223;-81
2022/08/30 11:35:49;;;;;;;5.00;3.10;;;31.10;98.10;;;;;;5036838;28;20194;-83
2022/08/30 11:38:23;;;;;;;2.90;2.60;;;31.30;96.50;;;;;;5036366;28;20528;-81
2022/08/30 11:40:55;;;;;;;2.90;2.70;;;31.20;94.60;;;;;;5036728;28;20193;-82
2022/08/30 11:43:33;;;;;;;6.30;3.07;;;31.30;96.90;;;;;;5037209;28;20188;-82
2022/08/30 11:46:28;;;;;;;3.03;2.73;;;31.20;95.10;;;;;;5054836;28;20678;-81
2022/08/30 11:49:04;;;;;;;3.37;3.07;;;31.30;94.80;;;;;;5046019;28;20202;-82
2022/08/30 11:52:03;;;;;;;3.03;2.70;;;31.30;94.60;;;;;;5045230;28;20194;-82
2022/08/30 11:55:07;;;;;;;2.90;2.70;;;31.40;94.40;;;;;;5052936;28;20195;-82
2022/08/30 11:58:03;;;;;;;3.40;3.10;;;31.00;97.10;;;;;;5039325;28;20551;-83
2022/08/30 12:00:39;;;;;;;4.10;3.20;;;30.70;94.30;;;;;;5053944;28;20233;-85
2022/08/30 12:03:26;;;;;;;3.37;3.07;;;30.60;98.70;;;;;;5039131;28;20690;-82
2022/08/30 12:05:56;;;;;;;3.50;3.20;;;30.70;96.60;;;;;;5044295;28;20221;-81
2022/08/30 12:08:43;;;;;;;4.80;2.90;;;30.90;94.10;;;;;;5044340;28;20227;-84
2022/08/30 12:11:09;;;;;;;4.17;3.20;;;31.00;94.10;;;;;;5056687;28;20203;-83
2022/08/30 12:13:37;;;;;;;3.47;3.17;;;31.10;97.50;;;;;;5040405;28;20217;-85
2022/08/30 12:16:18;;;;;;;4.03;3.30;;;31.10;94.60;;;;;;5044976;28;20194;-83
2022/08/30 12:18:48;;;;;;;3.60;3.30;;;31.00;95.60;;;;;;5050344;28;20186;-85
2022/08/30 12:21:20;;;;;;;3.67;2.87;;;30.70;96.40;;;;;;5038649;28;20572;-82
2022/08/30 12:24:08;;;;;;;4.47;3.40;;;30.50;97.60;;;;;;5040482;28;20196;-85
2022/08/30 12:26:39;;;;;;;3.87;3.20;;;30.40;94.10;;;;;;5053462;28;20212;-85
2022/08/30 12:29:26;;;;;;;5.70;2.90;;;29.40;96.80;;;;;;5041066;28;20196;-84
2022/08/30 12:32:13;;;;;;;3.53;3.03;;;29.30;99.60;;;;;;5050673;28;20199;-84
2022/08/30 12:34:44;;;;;;;3.27;2.97;;;29.20;97.00;;;;;;5059984;28;20233;-82
2022/08/30 12:37:29;;;;;;;4.73;3.27;;;28.80;93.90;;;;;;5058163;28;20235;-80
2022/08/30 12:40:14;;;;;;;3.47;3.17;;;28.20;94.20;;;;;;5047008;28;20269;-80
2022/08/30 12:42:54;;;;;;;3.40;3.10;;;28.10;96.90;;;;;;5042244;28;20236;-79
2022/08/30 12:45:24;;;;;;;2.87;2.67;;;27.80;96.20;;;;;;5039983;28;20184;-80
2022/08/30 12:48:03;;;;;;;3.63;3.10;;;27.90;98.50;;;;;;5038636;28;20268;-79
2022/08/30 12:50:42;;;;;;;3.03;2.70;;;28.80;98.60;;;;;;5039010;28;20596;-78
2022/08/30 12:53:11;;;;;;;3.20;2.80;;;29.00;99.40;;;;;;5051230;28;20170;-81
2022/08/30 12:56:02;;;;;;;3.73;2.87;;;30.20;96.60;;;;;;5057242;28;20185;-78
2022/08/30 12:58:49;;;;;;;3.93;2.87;;;30.90;95.80;;;;;;5037832;28;20184;-79
2022/08/30 13:01:14;;;;;;;3.47;3.17;;;31.30;97.50;;;;;;5034978;28;20212;-78
2022/08/30 13:03:40;;;;;;;3.37;2.87;;;31.40;96.20;;;;;;5037304;28;20194;-79
2022/08/30 13:06:08;;;;;;;3.80;3.37;;;31.80;94.00;;;;;;5037401;28;20171;-78
2022/08/30 13:08:49;;;;;;;5.63;3.10;;;31.80;90.80;;;;;;5037515;28;20215;-78
2022/08/30 13:11:25;;;;;;;3.93;3.30;;;31.80;93.70;;;;;;5036507;28;20209;-81
2022/08/30 13:13:59;;;;;;;2.80;2.60;;;31.50;93.00;;;;;;5038818;28;20669;-80
2022/08/30 13:16:33;;;;;;;3.60;3.30;;;31.60;94.10;;;;;;5037243;28;20184;-80
2022/08/30 13:19:27;;;;;;;3.50;3.20;;;31.20;95.80;;;;;;5038287;28;20252;-79
2022/08/30 13:21:55;;;;;;;3.37;3.00;;;31.20;94.80;;;;;;5037902;28;21073;-80
2022/08/30 13:24:22;;;;;;;6.60;3.23;;;31.40;91.60;;;;;;5038214;28;20257;-81
2022/08/30 13:26:48;;;;;;;3.57;3.27;;;31.70;93.80;;;;;;5038411;28;20204;-81
2022/08/30 13:29:16;;;;;;;3.63;3.30;;;32.00;95.00;;;;;;5037787;28;20255;-81
2022/08/30 13:31:43;;;;;;;3.37;3.07;;;32.10;94.60;;;;;;5038029;28;20184;-81
2022/08/30 13:34:09;;;;;;;4.57;3.47;;;32.20;94.90;;;;;;5037764;28;20210;-81
2022/08/30 13:36:43;;;;;;;6.17;3.10;;;32.30;94.40;;;;;;5038685;28;20166;-80
2022/08/30 13:39:09;;;;;;;3.57;3.27;;;32.30;92.30;;;;;;5038347;28;20623;-81
2022/08/30 13:41:35;;;;;;;4.73;3.70;;;32.30;92.10;;;;;;5039612;28;20187;-82